SFR323 FAOR-FAEL
Flight info
| Callsign | SFR323 |
|---|---|
| Flight time | N/A |
| Altitude | 36000 |
| Route | APDAK1B APDAK DCT GEROX UQ7 AXOXI DCT ELV |
| Aircraft | B738/M-SDE2E3FGHIRWXY/LB1 |
Departure
| Time | N/A |
|---|---|
| Airport | O.R. Tambo International Airport (FAOR) |
Arrival
| Time | 2026-05-03 20:59 |
|---|---|
| Airport | King Phalo Airport (FAEL) |
| Time | Latitude | Longitude | Altitude | Speed | Heading |
|---|---|---|---|---|---|
| 2026-05-03 20:15 | -28.21599 | 28.83993 | 36308 ft | 468 kts | 194° |
| 2026-05-03 20:15 | -28.28018 | 28.82540 | 36310 ft | 471 kts | 194° |
| 2026-05-03 20:16 | -28.34410 | 28.81096 | 36296 ft | 472 kts | 194° |
| 2026-05-03 20:16 | -28.40854 | 28.79638 | 36299 ft | 471 kts | 194° |
| 2026-05-03 20:17 | -28.47284 | 28.78180 | 36280 ft | 470 kts | 194° |
| 2026-05-03 20:17 | -28.53689 | 28.76724 | 36293 ft | 468 kts | 194° |
| 2026-05-03 20:18 | -28.60063 | 28.75274 | 36295 ft | 466 kts | 194° |
| 2026-05-03 20:18 | -28.66420 | 28.73825 | 36299 ft | 465 kts | 194° |
| 2026-05-03 20:19 | -28.72720 | 28.72388 | 36301 ft | 464 kts | 195° |
| 2026-05-03 20:19 | -28.79047 | 28.70942 | 36300 ft | 463 kts | 195° |
| 2026-05-03 20:20 | -28.85368 | 28.69497 | 36305 ft | 463 kts | 195° |
| 2026-05-03 20:20 | -28.91682 | 28.68051 | 36309 ft | 462 kts | 195° |
| 2026-05-03 20:21 | -28.97990 | 28.66606 | 36321 ft | 462 kts | 195° |
| 2026-05-03 20:21 | -29.04318 | 28.65153 | 36312 ft | 463 kts | 195° |
| 2026-05-03 20:22 | -29.10650 | 28.63697 | 36310 ft | 465 kts | 195° |
| 2026-05-03 20:22 | -29.16962 | 28.62244 | 36280 ft | 464 kts | 195° |
| 2026-05-03 20:23 | -29.23310 | 28.60782 | 36300 ft | 465 kts | 195° |
| 2026-05-03 20:23 | -29.29652 | 28.59319 | 36298 ft | 465 kts | 195° |
| 2026-05-03 20:24 | -29.36012 | 28.57849 | 36288 ft | 466 kts | 195° |
| 2026-05-03 20:24 | -29.42382 | 28.56376 | 36291 ft | 467 kts | 195° |
| 2026-05-03 20:25 | -29.48734 | 28.54905 | 36288 ft | 468 kts | 195° |
| 2026-05-03 20:25 | -29.55130 | 28.53422 | 36278 ft | 469 kts | 195° |
| 2026-05-03 20:26 | -29.61529 | 28.51936 | 36278 ft | 469 kts | 195° |
| 2026-05-03 20:26 | -29.67898 | 28.50456 | 36278 ft | 469 kts | 195° |
| 2026-05-03 20:27 | -29.74308 | 28.48964 | 36264 ft | 470 kts | 195° |
| 2026-05-03 20:27 | -29.80728 | 28.47468 | 36249 ft | 470 kts | 195° |
| 2026-05-03 20:28 | -29.87145 | 28.45970 | 36243 ft | 470 kts | 196° |
| 2026-05-03 20:28 | -29.93520 | 28.44480 | 36213 ft | 469 kts | 196° |
| 2026-05-03 20:29 | -29.99914 | 28.42984 | 36234 ft | 469 kts | 196° |
| 2026-05-03 20:29 | -30.06306 | 28.41487 | 36229 ft | 468 kts | 196° |
| 2026-05-03 20:30 | -30.12693 | 28.39988 | 36229 ft | 468 kts | 196° |
| 2026-05-03 20:30 | -30.19083 | 28.38486 | 36229 ft | 469 kts | 196° |
| 2026-05-03 20:31 | -30.25486 | 28.36980 | 36215 ft | 469 kts | 196° |
| 2026-05-03 20:31 | -30.31872 | 28.35476 | 36217 ft | 468 kts | 196° |
| 2026-05-03 20:32 | -30.38247 | 28.33972 | 36200 ft | 467 kts | 196° |
| 2026-05-03 20:32 | -30.44582 | 28.32475 | 36193 ft | 467 kts | 197° |
| 2026-05-03 20:33 | -30.50948 | 28.30970 | 36207 ft | 467 kts | 197° |
| 2026-05-03 20:33 | -30.57318 | 28.29462 | 36194 ft | 467 kts | 197° |
| 2026-05-03 20:34 | -30.63686 | 28.27952 | 36208 ft | 467 kts | 197° |
| 2026-05-03 20:34 | -30.70066 | 28.26436 | 36190 ft | 468 kts | 197° |
| 2026-05-03 20:35 | -30.76452 | 28.24917 | 36181 ft | 468 kts | 197° |
| 2026-05-03 20:35 | -30.82842 | 28.23395 | 36176 ft | 469 kts | 197° |
| 2026-05-03 20:36 | -30.89200 | 28.21880 | 36182 ft | 469 kts | 197° |
| 2026-05-03 20:36 | -30.95596 | 28.20353 | 36185 ft | 469 kts | 197° |
| 2026-05-03 20:37 | -31.02002 | 28.18821 | 36181 ft | 469 kts | 197° |
| 2026-05-03 20:37 | -31.08401 | 28.17288 | 36192 ft | 470 kts | 197° |
| 2026-05-03 20:38 | -31.14811 | 28.15751 | 36181 ft | 470 kts | 197° |
| 2026-05-03 20:38 | -31.21228 | 28.14210 | 36178 ft | 470 kts | 197° |
| 2026-05-03 20:39 | -31.27599 | 28.12678 | 36162 ft | 470 kts | 197° |
| 2026-05-03 20:39 | -31.34003 | 28.11135 | 36151 ft | 470 kts | 198° |
| 2026-05-03 20:40 | -31.40413 | 28.09588 | 36150 ft | 470 kts | 198° |
| 2026-05-03 20:40 | -31.43638 | 28.08807 | 35666 ft | 478 kts | 198° |
| 2026-05-03 20:40 | -31.46899 | 28.08018 | 35098 ft | 477 kts | 198° |
| 2026-05-03 20:40 | -31.50150 | 28.07233 | 34479 ft | 477 kts | 198° |
| 2026-05-03 20:41 | -31.53413 | 28.06444 | 33716 ft | 480 kts | 197° |
| 2026-05-03 20:41 | -31.56654 | 28.05660 | 32979 ft | 481 kts | 198° |
| 2026-05-03 20:41 | -31.59930 | 28.04868 | 32283 ft | 481 kts | 198° |
| 2026-05-03 20:41 | -31.63210 | 28.04073 | 31555 ft | 482 kts | 198° |
| 2026-05-03 20:42 | -31.66502 | 28.03276 | 30833 ft | 483 kts | 198° |
| 2026-05-03 20:42 | -31.69798 | 28.02476 | 30052 ft | 485 kts | 198° |
| 2026-05-03 20:42 | -31.73119 | 28.01669 | 29141 ft | 487 kts | 197° |
| 2026-05-03 20:42 | -31.76438 | 28.00862 | 28299 ft | 486 kts | 197° |
| 2026-05-03 20:43 | -31.79752 | 28.00057 | 27446 ft | 487 kts | 197° |
| 2026-05-03 20:43 | -31.83075 | 27.99249 | 26572 ft | 487 kts | 196° |
| 2026-05-03 20:43 | -31.86397 | 27.98441 | 25688 ft | 488 kts | 196° |
| 2026-05-03 20:43 | -31.89716 | 27.97633 | 25048 ft | 484 kts | 195° |
| 2026-05-03 20:44 | -31.92959 | 27.96844 | 24382 ft | 478 kts | 195° |
| 2026-05-03 20:44 | -31.96192 | 27.96058 | 23743 ft | 468 kts | 195° |
| 2026-05-03 20:44 | -31.99353 | 27.95288 | 23020 ft | 459 kts | 195° |
| 2026-05-03 20:44 | -32.02442 | 27.94535 | 22378 ft | 448 kts | 195° |
| 2026-05-03 20:45 | -32.05464 | 27.93796 | 21748 ft | 439 kts | 195° |
| 2026-05-03 20:45 | -32.08428 | 27.93070 | 21150 ft | 430 kts | 195° |
| 2026-05-03 20:45 | -32.11343 | 27.92382 | 20555 ft | 423 kts | 193° |
| 2026-05-03 20:45 | -32.13266 | 27.92071 | 20186 ft | 418 kts | 192° |
| 2026-05-03 20:46 | -32.16090 | 27.91462 | 19630 ft | 409 kts | 196° |
| 2026-05-03 20:46 | -32.19746 | 27.90446 | 18710 ft | 405 kts | 198° |
| 2026-05-03 20:46 | -32.22472 | 27.89638 | 17996 ft | 401 kts | 198° |
| 2026-05-03 20:46 | -32.25158 | 27.88846 | 17242 ft | 395 kts | 198° |
| 2026-05-03 20:47 | -32.27797 | 27.88083 | 16628 ft | 387 kts | 198° |
| 2026-05-03 20:47 | -32.29555 | 27.87583 | 16210 ft | 383 kts | 197° |
| 2026-05-03 20:47 | -32.32110 | 27.86865 | 15604 ft | 379 kts | 197° |
| 2026-05-03 20:47 | -32.34661 | 27.86154 | 15017 ft | 375 kts | 197° |
| 2026-05-03 20:48 | -32.37196 | 27.85451 | 14435 ft | 373 kts | 197° |
| 2026-05-03 20:48 | -32.39734 | 27.84749 | 13863 ft | 375 kts | 196° |
| 2026-05-03 20:48 | -32.42276 | 27.84047 | 13232 ft | 374 kts | 196° |
| 2026-05-03 20:48 | -32.44799 | 27.83350 | 12598 ft | 369 kts | 196° |
| 2026-05-03 20:49 | -32.47286 | 27.82664 | 11980 ft | 365 kts | 196° |
| 2026-05-03 20:49 | -32.49745 | 27.81985 | 11364 ft | 361 kts | 196° |
| 2026-05-03 20:49 | -32.52180 | 27.81312 | 10779 ft | 356 kts | 196° |
| 2026-05-03 20:49 | -32.54574 | 27.80650 | 10204 ft | 350 kts | 196° |
| 2026-05-03 20:50 | -32.56935 | 27.79997 | 9579 ft | 345 kts | 196° |
| 2026-05-03 20:50 | -32.59254 | 27.79354 | 9024 ft | 338 kts | 196° |
| 2026-05-03 20:50 | -32.61513 | 27.78730 | 8627 ft | 327 kts | 197° |
| 2026-05-03 20:50 | -32.63696 | 27.78127 | 8291 ft | 317 kts | 197° |
| 2026-05-03 20:51 | -32.65789 | 27.77547 | 7944 ft | 308 kts | 197° |
| 2026-05-03 20:51 | -32.67846 | 27.76976 | 7644 ft | 299 kts | 197° |
| 2026-05-03 20:51 | -32.69840 | 27.76423 | 7353 ft | 291 kts | 197° |
| 2026-05-03 20:51 | -32.71792 | 27.75881 | 7048 ft | 284 kts | 197° |
| 2026-05-03 20:52 | -32.73694 | 27.75352 | 6757 ft | 276 kts | 197° |
| 2026-05-03 20:52 | -32.75542 | 27.74838 | 6495 ft | 269 kts | 197° |
| 2026-05-03 20:52 | -32.77343 | 27.74337 | 6217 ft | 262 kts | 197° |
| 2026-05-03 20:52 | -32.79083 | 27.73854 | 5953 ft | 254 kts | 198° |
| 2026-05-03 20:53 | -32.80799 | 27.73375 | 5646 ft | 252 kts | 198° |
| 2026-05-03 20:53 | -32.82496 | 27.72902 | 5379 ft | 249 kts | 198° |
| 2026-05-03 20:53 | -32.84172 | 27.72436 | 5112 ft | 246 kts | 199° |
| 2026-05-03 20:53 | -32.85840 | 27.71969 | 4875 ft | 245 kts | 199° |
| 2026-05-03 20:54 | -32.87503 | 27.71506 | 4611 ft | 245 kts | 198° |
| 2026-05-03 20:54 | -32.90799 | 27.70579 | 4108 ft | 244 kts | 198° |
| 2026-05-03 20:54 | -32.92446 | 27.70120 | 3860 ft | 240 kts | 198° |
| 2026-05-03 20:55 | -32.94069 | 27.69677 | 3634 ft | 237 kts | 198° |
| 2026-05-03 20:55 | -32.95646 | 27.69227 | 3504 ft | 230 kts | 198° |
| 2026-05-03 20:55 | -32.97189 | 27.68803 | 3365 ft | 226 kts | 198° |
| 2026-05-03 20:55 | -32.98688 | 27.68389 | 3294 ft | 217 kts | 198° |
| 2026-05-03 20:56 | -33.00151 | 27.67979 | 3166 ft | 214 kts | 198° |
| 2026-05-03 20:56 | -33.01620 | 27.67567 | 2992 ft | 221 kts | 194° |
| 2026-05-03 20:56 | -33.03179 | 27.67686 | 2782 ft | 234 kts | 160° |
| 2026-05-03 20:56 | -33.04441 | 27.68861 | 2550 ft | 230 kts | 121° |
| 2026-05-03 20:57 | -33.04821 | 27.70595 | 2480 ft | 208 kts | 83° |
| 2026-05-03 20:57 | -33.04714 | 27.72227 | 2419 ft | 190 kts | 82° |
| 2026-05-03 20:57 | -33.04657 | 27.73786 | 2171 ft | 182 kts | 83° |
| 2026-05-03 20:57 | -33.04521 | 27.75175 | 1968 ft | 160 kts | 77° |
| 2026-05-03 20:58 | -33.04349 | 27.76427 | 1877 ft | 147 kts | 75° |
| 2026-05-03 20:58 | -33.04163 | 27.77592 | 1548 ft | 141 kts | 74° |
| 2026-05-03 20:58 | -33.03994 | 27.78728 | 1152 ft | 137 kts | 78° |
| 2026-05-03 20:58 | -33.03876 | 27.79847 | 798 ft | 137 kts | 80° |
| 2026-05-03 20:59 | -33.03749 | 27.80955 | 489 ft | 131 kts | 79° |
| 2026-05-03 20:59 | -33.03631 | 27.81942 | 430 ft | 96 kts | 82° |
| 2026-05-03 20:59 | -33.03567 | 27.82475 | 428 ft | 34 kts | 82° |
| 2026-05-03 20:59 | -33.03538 | 27.82713 | 429 ft | 23 kts | 82° |
| 2026-05-03 21:00 | -33.03526 | 27.82844 | 422 ft | 10 kts | 98° |
| 2026-05-03 21:00 | -33.03542 | 27.82861 | 417 ft | 3 kts | 170° |
| 2026-05-03 21:00 | -33.03573 | 27.82866 | 425 ft | 3 kts | 173° |
| 2026-05-03 21:00 | -33.03597 | 27.82869 | 428 ft | 4 kts | 173° |
| 2026-05-03 21:01 | -33.03634 | 27.82875 | 415 ft | 7 kts | 170° |
| 2026-05-03 21:01 | -33.03666 | 27.82868 | 416 ft | 5 kts | 208° |
| 2026-05-03 21:01 | -33.03679 | 27.82843 | 414 ft | 0 kts | 258° |
| 2026-05-03 21:01 | -33.03684 | 27.82828 | 419 ft | 3 kts | 240° |
| 2026-05-03 21:02 | -33.03704 | 27.82820 | 417 ft | 4 kts | 182° |
| 2026-05-03 21:02 | -33.03710 | 27.82819 | 418 ft | 2 kts | 182° |
| 2026-05-03 21:02 | -33.03725 | 27.82822 | 419 ft | 0 kts | 171° |
| 2026-05-03 21:02 | -33.03729 | 27.82823 | 419 ft | 1 kts | 171° |
| 2026-05-03 21:03 | -33.03734 | 27.82824 | 420 ft | 0 kts | 171° |